Kingsbury, Texas
Current Conditions -  °F | °C
As of 6:01 PM on Thursday 18 Dec 2014 (Local Time) from KBAZ Reporting Station
Overcast Overcast  
Wind Chill: 61°   Ceiling: 1000
Heat Index: 61°   Visibility: 10mi
Dew Point: 55°   Wind: 10mph
Humidity: 81%   Direction: 30°NNE
Pressure: 30.03"   Gusts: NA
Location:  29.65°N, 97.83°W
Report Text: KBAZ 190001Z 03009KT 10SM OVC010 16/13 A3003 RMK AO2 T01610128
Loading
Personal Weather Stations






























Interactive Weather Map New forecast layout! Learn more

10-Day Weather Forecast

Advertisements
Track Severe Weather on mobile